Time;durP1;ratioP1;P1;durP2;ratioP2;P2;SDS_P1;SDS_P2;PMS_P1;PMS_P2;Temp;Humidity;BMP_temperature;BMP_pressure;BME280_temperature;BME280_humidity;BME280_pressure;Samples;Min_cycle;Max_cycle;Signal;HPM_P1;HPM_P2
2023/04/22 00:01:01;;;;;;;10.30;6.38;;;12.00;99.90;;;;;;5076278;28;20170;-81
2023/04/22 00:03:27;;;;;;;9.48;6.32;;;12.00;99.90;;;;;;5058338;28;20205;-81
2023/04/22 00:05:53;;;;;;;15.15;6.28;;;11.90;99.90;;;;;;5076388;28;20172;-81
2023/04/22 00:08:19;;;;;;;9.13;5.70;;;12.00;99.90;;;;;;5076352;28;20188;-81
2023/04/22 00:10:45;;;;;;;10.93;5.85;;;11.90;99.90;;;;;;5076235;28;20165;-81
2023/04/22 00:13:11;;;;;;;6.95;6.15;;;11.90;99.90;;;;;;5075954;28;20257;-80
2023/04/22 00:15:37;;;;;;;9.35;6.10;;;11.90;99.90;;;;;;5076191;28;20574;-81
2023/04/22 00:18:02;;;;;;;15.02;6.13;;;11.90;99.90;;;;;;5076185;28;20538;-81
2023/04/22 00:20:31;;;;;;;9.25;6.70;;;11.90;99.90;;;;;;5075970;28;20180;-81
2023/04/22 00:22:57;;;;;;;13.45;6.75;;;11.80;99.90;;;;;;5076014;28;20526;-81
2023/04/22 00:25:22;;;;;;;11.10;6.43;;;11.80;99.90;;;;;;5058102;28;20185;-81
2023/04/22 00:27:48;;;;;;;9.90;6.43;;;11.80;99.90;;;;;;5075799;28;20518;-80
2023/04/22 00:30:14;;;;;;;9.55;6.88;;;11.70;99.90;;;;;;5075709;28;20548;-81
2023/04/22 00:32:40;;;;;;;10.38;6.47;;;11.70;99.90;;;;;;5075689;28;20161;-81
2023/04/22 00:35:06;;;;;;;11.32;6.85;;;11.70;99.90;;;;;;5075781;28;20223;-81
2023/04/22 00:37:32;;;;;;;7.50;6.38;;;11.70;99.90;;;;;;5057791;28;20230;-81
2023/04/22 00:39:57;;;;;;;11.00;6.95;;;11.70;99.90;;;;;;5075705;28;20631;-80
2023/04/22 00:42:24;;;;;;;10.52;6.72;;;11.60;99.90;;;;;;5075327;28;20180;-81
2023/04/22 00:44:50;;;;;;;10.80;6.72;;;11.60;99.90;;;;;;5075336;28;20173;-81
2023/04/22 00:47:16;;;;;;;12.57;6.68;;;11.60;99.90;;;;;;5075579;28;20701;-81
2023/04/22 00:49:42;;;;;;;8.75;6.55;;;11.50;99.90;;;;;;5075519;28;20616;-81
2023/04/22 00:52:08;;;;;;;9.07;6.40;;;11.50;99.90;;;;;;5075519;28;20486;-81
2023/04/22 00:54:35;;;;;;;10.73;6.10;;;11.50;99.90;;;;;;5057545;28;20185;-81
2023/04/22 00:57:03;;;;;;;10.10;6.22;;;11.50;99.90;;;;;;5075133;28;20174;-79
2023/04/22 00:59:29;;;;;;;10.25;6.63;;;11.50;99.90;;;;;;5074278;28;20259;-79
2023/04/22 01:01:55;;;;;;;12.20;6.75;;;11.40;99.90;;;;;;5057131;28;20228;-79
2023/04/22 01:04:22;;;;;;;9.15;7.00;;;11.40;99.90;;;;;;5075280;28;20220;-80
2023/04/22 01:06:50;;;;;;;8.85;6.60;;;11.30;99.90;;;;;;5075270;28;20213;-81
2023/04/22 01:09:18;;;;;;;13.88;7.07;;;11.30;99.90;;;;;;5075136;28;20603;-81
2023/04/22 01:11:45;;;;;;;13.13;7.10;;;11.30;99.90;;;;;;5074868;28;20166;-80
2023/04/22 01:16:47;;;;;;;12.48;7.15;;;11.20;99.90;;;;;;5106242;22;20240;-81
2023/04/22 01:19:12;;;;;;;9.52;6.80;;;11.20;99.90;;;;;;5055432;28;20181;-81
2023/04/22 01:21:39;;;;;;;10.38;7.20;;;11.20;99.90;;;;;;5037295;28;20209;-81
2023/04/22 01:24:06;;;;;;;10.77;6.65;;;11.10;99.90;;;;;;5055233;28;20209;-81
2023/04/22 01:26:32;;;;;;;12.52;6.82;;;11.10;99.90;;;;;;5055562;28;20174;-81
2023/04/22 01:29:00;;;;;;;11.85;6.97;;;11.10;99.90;;;;;;5037440;28;20186;-81
2023/04/22 01:31:26;;;;;;;11.65;7.25;;;11.10;99.90;;;;;;5054826;28;20162;-81
2023/04/22 01:33:51;;;;;;;8.02;6.88;;;11.10;99.90;;;;;;5055105;28;20182;-81
2023/04/22 01:36:17;;;;;;;8.40;6.68;;;11.00;99.90;;;;;;5054970;28;20182;-81
2023/04/22 01:38:43;;;;;;;11.27;7.55;;;11.00;99.90;;;;;;5054987;28;20245;-81
2023/04/22 01:41:09;;;;;;;11.50;7.72;;;11.00;99.90;;;;;;5054351;28;20200;-81
2023/04/22 01:43:35;;;;;;;11.27;7.10;;;11.00;99.90;;;;;;5054154;28;20908;-81
2023/04/22 01:46:03;;;;;;;12.25;7.60;;;11.00;99.90;;;;;;5053836;28;20647;-81
2023/04/22 01:48:29;;;;;;;9.98;6.82;;;11.00;99.90;;;;;;5054653;28;20215;-81
2023/04/22 01:50:55;;;;;;;9.45;7.13;;;11.00;99.90;;;;;;5054241;28;20174;-81
2023/04/22 01:53:20;;;;;;;11.63;7.63;;;11.00;99.90;;;;;;5036238;28;20649;-82
2023/04/22 01:55:46;;;;;;;11.60;7.60;;;11.00;99.90;;;;;;5054133;28;20178;-81
2023/04/22 01:58:12;;;;;;;12.57;7.95;;;11.00;99.90;;;;;;5054224;28;20609;-81
2023/04/22 02:00:38;;;;;;;11.45;7.53;;;11.10;99.90;;;;;;5053800;28;20174;-82
2023/04/22 02:03:04;;;;;;;9.77;6.95;;;11.00;99.90;;;;;;5054024;28;20589;-81
2023/04/22 02:05:30;;;;;;;11.95;7.25;;;11.10;99.90;;;;;;5054114;28;20173;-81
2023/04/22 02:07:55;;;;;;;11.77;7.82;;;11.00;99.90;;;;;;5053768;28;20663;-82
2023/04/22 02:10:21;;;;;;;9.77;7.10;;;11.00;99.90;;;;;;5053780;28;20187;-82
2023/04/22 02:12:47;;;;;;;9.40;7.35;;;11.00;99.90;;;;;;5053456;28;20170;-81
2023/04/22 02:15:13;;;;;;;11.35;7.13;;;11.00;99.90;;;;;;5035165;28;20233;-82
2023/04/22 02:17:42;;;;;;;13.15;7.38;;;11.00;99.90;;;;;;5053746;28;20518;-82
2023/04/22 02:20:11;;;;;;;9.27;6.78;;;11.00;99.90;;;;;;5053427;28;20209;-81
2023/04/22 02:22:38;;;;;;;11.15;7.43;;;11.00;99.90;;;;;;5053343;28;20201;-82
2023/04/22 02:25:04;;;;;;;13.75;6.97;;;11.00;99.90;;;;;;5053763;28;20690;-82
2023/04/22 02:27:30;;;;;;;15.10;7.28;;;11.10;99.90;;;;;;5053531;28;20578;-82
2023/04/22 02:29:56;;;;;;;10.38;7.60;;;11.10;99.90;;;;;;5053444;28;20205;-82
2023/04/22 02:32:22;;;;;;;10.48;7.88;;;11.00;99.90;;;;;;5035613;28;20184;-82
2023/04/22 02:34:48;;;;;;;8.55;6.85;;;11.00;99.90;;;;;;5053624;28;20189;-82
2023/04/22 02:37:13;;;;;;;11.63;7.43;;;11.00;99.90;;;;;;5053490;28;20181;-82
2023/04/22 02:39:39;;;;;;;11.10;7.53;;;11.00;99.90;;;;;;5053471;28;20192;-82
2023/04/22 02:42:05;;;;;;;9.77;7.70;;;11.00;99.90;;;;;;5053171;28;20278;-81
2023/04/22 02:44:30;;;;;;;11.80;7.45;;;11.00;99.90;;;;;;5053440;28;20296;-80
2023/04/22 02:46:56;;;;;;;12.75;7.75;;;11.00;99.90;;;;;;5053144;28;20193;-81
2023/04/22 02:49:22;;;;;;;10.18;7.32;;;11.00;99.90;;;;;;5053388;28;20170;-81
2023/04/22 02:51:48;;;;;;;14.20;7.97;;;11.00;99.90;;;;;;5035224;28;20182;-81
2023/04/22 02:54:13;;;;;;;11.65;7.45;;;11.00;99.90;;;;;;5053391;28;20178;-80
2023/04/22 02:56:39;;;;;;;10.07;7.20;;;10.90;99.90;;;;;;5053391;28;20170;-81
2023/04/22 02:59:05;;;;;;;10.02;7.28;;;10.90;99.90;;;;;;5053409;28;20237;-80
2023/04/22 03:01:31;;;;;;;15.85;7.05;;;11.00;99.90;;;;;;5052977;28;20261;-81
2023/04/22 03:03:56;;;;;;;9.25;7.18;;;10.90;99.90;;;;;;5053233;28;20217;-80
2023/04/22 03:06:22;;;;;;;10.02;7.55;;;10.90;99.90;;;;;;5053201;28;20179;-81
2023/04/22 03:08:47;;;;;;;10.45;7.63;;;10.90;99.90;;;;;;5053370;28;20247;-80
2023/04/22 03:11:13;;;;;;;13.13;7.35;;;10.90;99.90;;;;;;5052976;28;20185;-80
2023/04/22 03:13:39;;;;;;;8.40;7.03;;;10.90;99.90;;;;;;5053492;28;20494;-81
2023/04/22 03:16:05;;;;;;;10.45;7.22;;;10.90;99.90;;;;;;5052857;28;20623;-81
2023/04/22 03:18:31;;;;;;;10.60;7.05;;;10.90;99.90;;;;;;5034873;28;20236;-80
2023/04/22 03:20:57;;;;;;;12.13;7.63;;;10.90;99.90;;;;;;5052983;28;20166;-81
2023/04/22 03:23:22;;;;;;;13.55;6.95;;;10.90;99.90;;;;;;5056134;28;20709;-81
2023/04/22 03:25:48;;;;;;;13.73;7.10;;;10.90;99.90;;;;;;5057301;28;20173;-80
2023/04/22 03:28:14;;;;;;;12.40;7.75;;;10.90;99.90;;;;;;5057111;28;20578;-80
2023/04/22 03:30:40;;;;;;;12.18;7.45;;;10.90;99.90;;;;;;5056517;28;20162;-80
2023/04/22 03:33:06;;;;;;;11.52;7.47;;;10.80;99.90;;;;;;5056792;28;20220;-80
2023/04/22 03:35:31;;;;;;;11.00;7.20;;;10.90;99.90;;;;;;5056867;28;20620;-80
2023/04/22 03:37:57;;;;;;;9.65;7.32;;;10.80;99.90;;;;;;5056769;28;20605;-80
2023/04/22 03:40:23;;;;;;;11.15;7.57;;;10.80;99.90;;;;;;5056770;28;20166;-81
2023/04/22 03:42:48;;;;;;;10.27;7.63;;;10.80;99.90;;;;;;5056544;28;20198;-80
2023/04/22 03:45:14;;;;;;;11.43;7.53;;;10.60;99.90;;;;;;5038527;28;20620;-81
2023/04/22 03:47:40;;;;;;;13.68;6.88;;;10.60;99.90;;;;;;5056807;28;20172;-82
2023/04/22 03:50:06;;;;;;;10.43;7.63;;;10.40;99.90;;;;;;5056415;28;20173;-81
2023/04/22 03:52:32;;;;;;;11.73;7.85;;;10.30;99.90;;;;;;5056311;28;20180;-80
2023/04/22 03:54:57;;;;;;;11.25;7.95;;;10.20;99.90;;;;;;5056489;28;20174;-80
2023/04/22 03:57:23;;;;;;;9.23;7.07;;;10.10;99.90;;;;;;5056315;28;20188;-81
2023/04/22 03:59:49;;;;;;;10.00;7.75;;;10.10;99.90;;;;;;5056494;28;20154;-80
2023/04/22 04:02:14;;;;;;;11.68;7.60;;;10.00;99.90;;;;;;5055718;28;20555;-82
2023/04/22 04:04:40;;;;;;;12.52;7.45;;;10.00;99.90;;;;;;5056448;28;20652;-81
2023/04/22 04:07:06;;;;;;;10.80;7.22;;;10.10;99.90;;;;;;5056355;28;20513;-80
2023/04/22 04:09:32;;;;;;;11.50;8.20;;;10.10;99.90;;;;;;5056048;28;20555;-80
2023/04/22 04:11:58;;;;;;;16.75;8.00;;;10.10;99.90;;;;;;5056230;28;20189;-79
2023/04/22 04:14:24;;;;;;;8.50;7.30;;;10.20;99.90;;;;;;5056248;28;20174;-80
2023/04/22 04:16:50;;;;;;;13.43;7.45;;;10.20;99.90;;;;;;5055573;28;20217;-81
2023/04/22 04:19:16;;;;;;;14.18;7.22;;;10.20;99.90;;;;;;5055872;28;20178;-80
2023/04/22 04:21:42;;;;;;;10.98;7.20;;;10.30;99.90;;;;;;5055978;28;20177;-80
2023/04/22 04:24:08;;;;;;;12.15;8.00;;;10.30;99.90;;;;;;5055832;28;20231;-81
2023/04/22 04:26:33;;;;;;;12.32;7.10;;;10.30;99.90;;;;;;5056063;28;20260;-80
2023/04/22 04:29:02;;;;;;;8.88;7.20;;;10.30;99.90;;;;;;5055701;28;20600;-80
2023/04/22 04:31:28;;;;;;;12.98;7.15;;;10.30;99.90;;;;;;5055427;28;20220;-81
2023/04/22 04:33:56;;;;;;;10.63;6.85;;;10.30;99.90;;;;;;5054459;28;20197;-80
2023/04/22 04:36:24;;;;;;;11.07;7.50;;;10.30;99.90;;;;;;5055771;28;20181;-80
2023/04/22 04:38:50;;;;;;;9.13;6.78;;;10.30;99.90;;;;;;5055598;28;20177;-81
2023/04/22 04:41:19;;;;;;;11.65;7.15;;;10.40;99.90;;;;;;5055629;28;20162;-81
2023/04/22 04:43:46;;;;;;;13.35;7.35;;;10.30;99.90;;;;;;5055568;28;20202;-80
2023/04/22 04:46:13;;;;;;;9.90;7.13;;;10.40;99.90;;;;;;5055174;28;20672;-80
2023/04/22 04:48:41;;;;;;;14.63;7.47;;;10.30;99.90;;;;;;5048315;28;21181;-80
2023/04/22 04:51:07;;;;;;;10.98;7.10;;;10.40;99.90;;;;;;5065318;28;20192;-80
2023/04/22 04:53:33;;;;;;;9.93;6.75;;;10.40;99.90;;;;;;5055210;28;20186;-80
2023/04/22 04:55:59;;;;;;;9.60;7.30;;;10.40;99.90;;;;;;5065132;28;20170;-81
2023/04/22 04:58:26;;;;;;;14.32;7.75;;;10.40;99.90;;;;;;5062181;28;20193;-80
2023/04/22 05:00:52;;;;;;;11.80;7.20;;;10.50;99.90;;;;;;5047751;28;20189;-80
2023/04/22 05:03:17;;;;;;;11.25;7.15;;;10.50;99.90;;;;;;5063086;28;20205;-81
2023/04/22 05:05:47;;;;;;;12.73;7.68;;;10.50;99.90;;;;;;5046563;28;20188;-80
2023/04/22 05:08:15;;;;;;;12.05;7.05;;;10.50;99.90;;;;;;5046199;28;20268;-81
2023/04/22 05:10:41;;;;;;;12.07;7.10;;;10.50;99.90;;;;;;5060473;28;20187;-81
2023/04/22 05:13:09;;;;;;;13.43;7.68;;;10.60;99.90;;;;;;5063381;28;20219;-80
2023/04/22 05:15:36;;;;;;;10.82;6.57;;;10.70;99.90;;;;;;5044427;28;20228;-80
2023/04/22 05:18:02;;;;;;;12.07;6.53;;;10.80;99.90;;;;;;5047033;28;20174;-80
2023/04/22 05:20:28;;;;;;;9.52;6.88;;;11.00;99.90;;;;;;5047751;28;20188;-80
2023/04/22 05:22:54;;;;;;;13.15;7.22;;;11.10;99.90;;;;;;5062216;28;20244;-81
2023/04/22 05:25:21;;;;;;;10.75;6.68;;;11.30;99.90;;;;;;5062504;28;20185;-82
2023/04/22 05:27:48;;;;;;;10.07;6.47;;;11.30;99.90;;;;;;5063703;28;20174;-82
2023/04/22 05:30:13;;;;;;;13.90;6.80;;;11.40;99.90;;;;;;5060296;28;20178;-81
2023/04/22 05:32:39;;;;;;;9.15;6.68;;;11.50;99.90;;;;;;5065288;28;20188;-82
2023/04/22 05:35:05;;;;;;;8.85;6.22;;;11.70;99.90;;;;;;5061365;28;20189;-82
2023/04/22 05:37:32;;;;;;;9.48;6.35;;;11.80;99.90;;;;;;5064761;28;20752;-81
2023/04/22 05:39:58;;;;;;;10.45;6.22;;;11.90;99.90;;;;;;5058030;28;20193;-82
2023/04/22 05:42:23;;;;;;;11.50;6.20;;;12.00;99.90;;;;;;5054271;28;20170;-82
2023/04/22 05:44:49;;;;;;;8.60;5.82;;;12.10;99.90;;;;;;5053998;28;20182;-82
2023/04/22 05:47:15;;;;;;;16.13;6.35;;;12.30;99.90;;;;;;5054077;28;20184;-82
2023/04/22 05:49:41;;;;;;;12.25;5.65;;;12.40;99.90;;;;;;5054407;28;20272;-82
2023/04/22 05:52:06;;;;;;;11.82;6.30;;;12.60;99.90;;;;;;5054234;28;20504;-82
2023/04/22 05:54:32;;;;;;;9.35;5.60;;;12.70;99.90;;;;;;5054366;28;20174;-82
2023/04/22 05:56:58;;;;;;;8.95;5.43;;;12.90;99.90;;;;;;5054138;28;20181;-82
2023/04/22 05:59:24;;;;;;;7.55;5.07;;;13.00;99.90;;;;;;5054056;28;20170;-82
2023/04/22 06:01:49;;;;;;;8.35;5.05;;;13.20;99.90;;;;;;5035804;28;20169;-82
2023/04/22 06:04:15;;;;;;;8.82;4.95;;;13.30;99.90;;;;;;5054077;28;20585;-82
2023/04/22 06:06:41;;;;;;;7.90;5.13;;;13.40;99.90;;;;;;5036146;28;20638;-82
2023/04/22 06:09:07;;;;;;;11.10;5.53;;;13.50;99.90;;;;;;5053590;28;20184;-82
2023/04/22 06:11:33;;;;;;;9.48;5.30;;;13.60;99.90;;;;;;5035924;28;20202;-81
2023/04/22 06:13:58;;;;;;;9.32;5.38;;;13.80;99.90;;;;;;5053867;28;20185;-81
2023/04/22 06:16:25;;;;;;;8.48;4.72;;;13.90;99.90;;;;;;5052549;28;20221;-81
2023/04/22 06:18:51;;;;;;;12.25;5.47;;;14.00;99.90;;;;;;5034712;28;20622;-82
2023/04/22 06:21:18;;;;;;;6.68;4.93;;;14.20;99.90;;;;;;5052780;28;20598;-82
2023/04/22 06:23:44;;;;;;;10.73;4.85;;;14.30;99.90;;;;;;5053103;28;20202;-82
2023/04/22 06:26:11;;;;;;;8.77;4.80;;;14.30;99.90;;;;;;5052887;28;20181;-81
2023/04/22 06:28:36;;;;;;;7.38;4.88;;;14.40;99.90;;;;;;5052910;28;20185;-82
2023/04/22 06:31:02;;;;;;;7.32;4.93;;;14.40;99.90;;;;;;5052823;28;20178;-82
2023/04/22 06:33:28;;;;;;;8.80;5.10;;;14.50;99.90;;;;;;5052897;28;20174;-82
2023/04/22 06:35:54;;;;;;;14.23;5.47;;;14.50;99.90;;;;;;5053019;28;20201;-82
2023/04/22 06:38:19;;;;;;;7.20;4.97;;;14.50;99.90;;;;;;5052982;28;20189;-81
2023/04/22 06:40:45;;;;;;;7.03;4.97;;;14.50;99.90;;;;;;5052631;28;20251;-82
2023/04/22 06:43:11;;;;;;;7.60;4.95;;;14.60;99.90;;;;;;5052938;28;20212;-82
2023/04/22 06:45:36;;;;;;;8.15;4.90;;;14.70;99.90;;;;;;5052327;28;20177;-81
2023/04/22 06:48:02;;;;;;;11.68;4.97;;;14.70;99.90;;;;;;5052660;28;20181;-82
2023/04/22 06:50:28;;;;;;;8.27;5.60;;;14.80;99.90;;;;;;5052682;28;20174;-83
2023/04/22 06:52:54;;;;;;;8.98;5.13;;;14.90;99.90;;;;;;5034729;28;20652;-81
2023/04/22 06:55:20;;;;;;;9.20;5.05;;;15.00;99.90;;;;;;5052693;28;20173;-82
2023/04/22 06:57:46;;;;;;;7.00;4.90;;;15.10;99.90;;;;;;5054442;28;20675;-82
2023/04/22 07:00:12;;;;;;;8.27;4.70;;;15.20;99.90;;;;;;5038158;28;20265;-81
2023/04/22 07:02:38;;;;;;;7.05;5.10;;;15.30;99.90;;;;;;5055709;28;20220;-82
2023/04/22 07:05:04;;;;;;;11.07;4.82;;;15.40;99.90;;;;;;5056197;28;20570;-82
2023/04/22 07:07:29;;;;;;;8.13;4.47;;;15.50;99.90;;;;;;5056097;28;20565;-82
2023/04/22 07:09:55;;;;;;;7.28;4.60;;;15.50;99.90;;;;;;5055916;28;20249;-83
2023/04/22 07:12:22;;;;;;;10.77;4.85;;;15.50;99.90;;;;;;5055814;28;20166;-81
2023/04/22 07:14:48;;;;;;;11.03;4.93;;;15.60;99.90;;;;;;5010182;28;1288015;-82
2023/04/22 07:17:18;;;;;;;5.88;4.45;;;15.80;99.90;;;;;;5057047;28;20174;-82
2023/04/22 07:19:43;;;;;;;9.40;4.68;;;15.80;99.90;;;;;;5056761;28;20660;-82
2023/04/22 07:22:09;;;;;;;7.50;4.35;;;15.90;99.90;;;;;;5057111;28;20280;-82
2023/04/22 07:24:35;;;;;;;10.25;4.65;;;16.00;99.90;;;;;;5039035;28;20300;-82
2023/04/22 07:27:02;;;;;;;8.23;4.57;;;16.00;99.90;;;;;;5057163;28;20178;-82
2023/04/22 07:29:27;;;;;;;10.73;4.38;;;16.00;99.90;;;;;;5056995;28;20743;-82
2023/04/22 07:31:53;;;;;;;9.85;4.28;;;16.10;99.90;;;;;;5038875;28;20261;-82
2023/04/22 07:34:19;;;;;;;8.88;4.25;;;16.30;99.90;;;;;;5056999;28;20170;-83
2023/04/22 07:36:45;;;;;;;5.65;4.00;;;16.40;99.90;;;;;;5056950;28;20177;-82
2023/04/22 07:39:10;;;;;;;7.10;4.35;;;16.60;99.90;;;;;;5056760;28;20178;-80
2023/04/22 07:41:36;;;;;;;9.30;4.07;;;16.70;99.90;;;;;;5056600;28;20630;-80
2023/04/22 07:44:02;;;;;;;7.40;4.38;;;16.80;99.90;;;;;;5056641;28;20267;-80
2023/04/22 07:46:28;;;;;;;7.25;3.97;;;17.00;99.90;;;;;;5056281;28;20189;-80
2023/04/22 07:48:54;;;;;;;8.43;4.20;;;17.10;99.90;;;;;;5056685;28;20265;-80
2023/04/22 07:51:20;;;;;;;11.15;4.25;;;17.20;99.50;;;;;;5056716;28;20261;-80
2023/04/22 07:53:45;;;;;;;8.38;3.70;;;17.10;99.90;;;;;;5056578;28;20661;-80
2023/04/22 07:56:12;;;;;;;6.88;4.35;;;17.20;99.90;;;;;;5056489;28;20228;-79
2023/04/22 07:58:38;;;;;;;12.07;3.83;;;17.30;98.90;;;;;;5056438;28;20185;-80
2023/04/22 08:01:03;;;;;;;9.73;3.92;;;17.40;99.50;;;;;;5056062;28;20170;-79
2023/04/22 08:03:29;;;;;;;15.70;4.50;;;17.50;99.20;;;;;;5056323;28;20221;-80
2023/04/22 08:05:57;;;;;;;9.05;3.45;;;17.70;99.20;;;;;;5056308;28;20189;-80
2023/04/22 08:08:23;;;;;;;5.63;3.55;;;17.80;98.50;;;;;;5056003;28;20194;-79
2023/04/22 08:10:49;;;;;;;10.88;3.53;;;17.90;97.30;;;;;;5056123;28;20177;-79
2023/04/22 08:13:15;;;;;;;11.18;3.30;;;18.00;96.80;;;;;;5056176;28;20154;-80
2023/04/22 08:15:41;;;;;;;7.40;3.17;;;18.10;96.70;;;;;;5055929;28;20267;-80
2023/04/22 08:18:06;;;;;;;11.15;3.40;;;18.20;97.10;;;;;;5055974;28;20616;-80
2023/04/22 08:20:32;;;;;;;7.32;3.20;;;18.40;96.70;;;;;;5055926;28;20615;-79
2023/04/22 08:22:59;;;;;;;9.48;3.50;;;18.50;96.50;;;;;;5037980;28;20205;-81
2023/04/22 08:25:25;;;;;;;6.35;3.13;;;18.70;97.00;;;;;;5038000;28;20200;-80
2023/04/22 08:27:51;;;;;;;5.80;3.35;;;18.70;96.30;;;;;;5055924;28;20245;-80
2023/04/22 08:30:17;;;;;;;9.40;3.45;;;18.80;96.00;;;;;;5055916;28;20261;-80
2023/04/22 08:32:43;;;;;;;5.22;2.90;;;18.70;95.90;;;;;;5055586;28;20539;-81
2023/04/22 08:35:09;;;;;;;6.82;3.30;;;18.80;96.10;;;;;;5055913;28;20525;-81
2023/04/22 08:37:35;;;;;;;6.93;3.60;;;18.70;95.50;;;;;;5037749;28;20178;-81
2023/04/22 08:40:01;;;;;;;6.22;3.13;;;18.70;95.20;;;;;;5055735;28;20604;-79
2023/04/22 08:42:27;;;;;;;7.15;3.25;;;18.70;95.60;;;;;;5055761;28;20544;-80
2023/04/22 08:44:53;;;;;;;9.43;3.15;;;18.70;95.50;;;;;;5055565;28;20186;-80
2023/04/22 08:47:20;;;;;;;7.47;3.30;;;18.70;95.60;;;;;;5055416;28;20170;-80
2023/04/22 08:49:46;;;;;;;6.75;3.42;;;18.70;95.50;;;;;;5055516;28;20178;-80
2023/04/22 08:52:14;;;;;;;6.57;3.33;;;18.80;96.40;;;;;;5055316;28;20162;-80
2023/04/22 08:54:40;;;;;;;14.30;3.58;;;18.90;95.80;;;;;;5037539;28;20186;-80
2023/04/22 08:57:09;;;;;;;5.60;3.30;;;19.00;95.40;;;;;;5055380;28;20170;-80
2023/04/22 08:59:36;;;;;;;4.60;3.08;;;19.10;95.50;;;;;;5037257;28;20185;-79
2023/04/22 09:02:12;;;;;;;8.07;3.35;;;19.20;96.10;;;;;;5036315;28;20205;-80
2023/04/22 09:04:39;;;;;;;5.60;2.97;;;19.20;95.30;;;;;;5055047;28;20196;-80
2023/04/22 09:07:06;;;;;;;8.23;3.08;;;19.20;95.30;;;;;;5054820;28;20521;-80
2023/04/22 09:09:33;;;;;;;7.63;3.15;;;19.40;95.30;;;;;;5054869;28;20177;-80
2023/04/22 09:11:59;;;;;;;6.68;3.28;;;19.40;94.60;;;;;;5054795;28;20572;-80
2023/04/22 09:14:25;;;;;;;7.68;3.30;;;19.50;95.10;;;;;;5055355;28;20181;-80
2023/04/22 09:16:51;;;;;;;8.05;5.07;;;19.50;95.60;;;;;;5054526;28;20232;-81
2023/04/22 09:19:16;;;;;;;6.63;3.33;;;19.50;95.00;;;;;;5053870;28;20178;-81
2023/04/22 09:21:42;;;;;;;6.60;3.65;;;19.60;94.70;;;;;;5054296;28;20202;-81
2023/04/22 09:24:10;;;;;;;7.68;4.00;;;19.70;94.70;;;;;;5054708;28;20606;-81
2023/04/22 09:26:41;;;;;;;6.60;3.30;;;19.60;95.30;;;;;;5054889;28;20581;-82
2023/04/22 09:29:12;;;;;;;8.55;3.70;;;19.80;95.40;;;;;;5054678;28;20178;-81
2023/04/22 09:31:37;;;;;;;6.32;3.40;;;19.80;94.40;;;;;;5054043;28;20173;-82
2023/04/22 09:34:04;;;;;;;6.78;2.97;;;19.90;95.50;;;;;;5054720;28;20170;-82
2023/04/22 09:36:36;;;;;;;4.38;3.00;;;20.00;94.50;;;;;;5054562;28;20177;-81
2023/04/22 09:39:03;;;;;;;8.27;3.10;;;20.20;94.20;;;;;;5036587;28;20612;-81
2023/04/22 09:41:38;;;;;;;6.88;3.30;;;20.30;93.80;;;;;;5054310;28;20609;-82
2023/04/22 09:44:09;;;;;;;6.63;3.60;;;20.50;93.10;;;;;;5054370;28;20194;-82
2023/04/22 09:46:35;;;;;;;4.97;2.95;;;20.50;93.40;;;;;;5054221;28;20207;-81
2023/04/22 09:49:01;;;;;;;3.95;3.00;;;20.70;94.00;;;;;;5054235;28;20534;-82
2023/04/22 09:51:29;;;;;;;11.15;3.35;;;20.70;93.40;;;;;;5053215;28;20208;-81
2023/04/22 09:53:59;;;;;;;6.93;2.90;;;20.70;93.80;;;;;;5036379;28;20629;-80
2023/04/22 09:56:42;;;;;;;7.72;3.30;;;20.90;94.30;;;;;;5036388;28;20490;-81
2023/04/22 09:59:08;;;;;;;12.35;3.50;;;20.90;93.50;;;;;;5036230;28;20664;-80
2023/04/22 10:01:41;;;;;;;4.55;2.63;;;21.00;94.00;;;;;;5035018;28;20518;-82
2023/04/22 10:04:09;;;;;;;9.15;3.72;;;21.00;93.00;;;;;;5036380;28;20205;-82
2023/04/22 10:06:36;;;;;;;9.07;3.30;;;21.00;93.40;;;;;;5034858;28;20184;-82
2023/04/22 10:09:03;;;;;;;7.35;3.40;;;21.10;93.40;;;;;;5036350;28;20193;-82
2023/04/22 10:11:31;;;;;;;7.82;3.30;;;21.20;93.50;;;;;;5053781;28;20674;-82
2023/04/22 10:13:57;;;;;;;6.38;3.03;;;21.20;94.00;;;;;;5053088;28;20194;-83
2023/04/22 10:16:25;;;;;;;6.80;3.03;;;21.40;93.80;;;;;;5035730;28;20287;-82
2023/04/22 10:18:55;;;;;;;9.35;3.20;;;21.50;93.20;;;;;;5053464;28;20181;-82
2023/04/22 10:21:23;;;;;;;7.90;3.10;;;21.60;92.80;;;;;;5053825;28;20818;-82
2023/04/22 10:23:49;;;;;;;5.63;3.33;;;21.70;92.30;;;;;;5053687;28;20212;-82
2023/04/22 10:26:48;;;;;;;7.30;3.10;;;21.70;92.90;;;;;;5053725;28;20193;-82
2023/04/22 10:29:18;;;;;;;8.07;3.20;;;21.80;92.10;;;;;;5034199;28;20190;-82
2023/04/22 10:31:58;;;;;;;6.93;2.70;;;21.90;92.00;;;;;;5053378;28;20192;-82
2023/04/22 10:34:24;;;;;;;6.47;2.92;;;21.90;91.40;;;;;;5053653;28;20185;-82
2023/04/22 10:37:12;;;;;;;5.57;3.22;;;21.90;91.50;;;;;;5053637;28;20528;-82
2023/04/22 10:39:40;;;;;;;4.25;3.15;;;21.80;92.10;;;;;;5053647;28;20181;-83
2023/04/22 10:42:11;;;;;;;5.18;3.05;;;21.80;91.80;;;;;;5053561;28;20183;-82
2023/04/22 10:44:52;;;;;;;6.30;3.95;;;21.90;91.80;;;;;;5035373;28;20586;-81
2023/04/22 10:47:31;;;;;;;14.68;4.32;;;21.90;92.20;;;;;;5035664;28;20161;-82
2023/04/22 10:50:20;;;;;;;7.32;3.00;;;22.00;93.10;;;;;;5036395;28;20161;-82
2023/04/22 10:52:48;;;;;;;6.95;3.33;;;22.20;91.50;;;;;;5035386;28;20178;-82
2023/04/22 10:55:15;;;;;;;6.10;3.08;;;22.40;93.00;;;;;;5053529;28;20154;-83
2023/04/22 10:57:42;;;;;;;11.23;3.10;;;22.50;91.40;;;;;;5053266;28;20628;-82
2023/04/22 11:00:22;;;;;;;5.82;2.67;;;22.50;91.50;;;;;;5052987;28;20193;-83
2023/04/22 11:03:15;;;;;;;9.15;3.25;;;22.50;90.20;;;;;;5053452;28;20169;-82
2023/04/22 11:05:42;;;;;;;5.50;2.88;;;22.60;90.80;;;;;;5049548;28;20273;-83
2023/04/22 11:08:15;;;;;;;5.25;2.97;;;22.50;90.70;;;;;;5053333;28;20485;-82
2023/04/22 11:10:44;;;;;;;4.25;2.75;;;22.50;90.70;;;;;;5035324;28;20890;-82
2023/04/22 11:13:18;;;;;;;7.07;2.55;;;22.60;90.60;;;;;;5053263;28;20196;-82
2023/04/22 11:15:49;;;;;;;5.57;2.88;;;22.70;90.90;;;;;;5045407;28;20227;-82
2023/04/22 11:18:21;;;;;;;9.32;3.00;;;22.80;89.70;;;;;;5036437;28;20587;-83
2023/04/22 11:20:48;;;;;;;7.97;2.90;;;22.80;90.00;;;;;;5032992;28;20181;-83
2023/04/22 11:23:27;;;;;;;4.57;2.88;;;22.90;91.20;;;;;;5020411;28;20667;-83
2023/04/22 11:25:57;;;;;;;6.25;3.00;;;23.00;90.70;;;;;;5053312;28;20555;-83
2023/04/22 11:28:24;;;;;;;6.65;3.25;;;22.80;90.20;;;;;;5053037;28;20698;-82
2023/04/22 11:30:51;;;;;;;8.32;3.25;;;22.70;90.40;;;;;;5052773;28;20510;-83
2023/04/22 11:33:17;;;;;;;10.40;3.58;;;22.70;90.30;;;;;;5035022;28;20570;-82
2023/04/22 11:35:43;;;;;;;5.30;2.75;;;22.90;90.40;;;;;;5051268;28;20174;-82
2023/04/22 11:38:09;;;;;;;2.75;2.45;;;23.00;90.00;;;;;;5043738;28;20609;-82
2023/04/22 11:40:38;;;;;;;8.32;2.88;;;23.00;89.90;;;;;;5027384;28;20182;-83
2023/04/22 11:43:05;;;;;;;9.02;2.90;;;23.10;90.60;;;;;;5052278;28;20209;-83
2023/04/22 11:45:33;;;;;;;6.78;2.88;;;23.10;89.80;;;;;;5055534;28;20171;-82
2023/04/22 11:48:00;;;;;;;8.75;3.08;;;23.20;88.30;;;;;;5056714;28;20182;-82
2023/04/22 11:50:28;;;;;;;6.65;2.45;;;23.20;89.70;;;;;;5056898;28;20177;-83
2023/04/22 11:52:57;;;;;;;5.10;2.80;;;23.20;89.80;;;;;;5056740;28;20166;-84
2023/04/22 11:55:26;;;;;;;3.85;2.58;;;23.20;86.80;;;;;;5072055;28;20174;-82
2023/04/22 11:58:06;;;;;;;4.40;2.45;;;23.10;88.30;;;;;;5068084;28;20239;-84
2023/04/22 12:00:44;;;;;;;6.15;2.83;;;23.20;88.40;;;;;;5055096;28;20248;-83
2023/04/22 12:03:17;;;;;;;4.97;2.55;;;23.20;89.10;;;;;;5056672;28;20206;-82
2023/04/22 12:05:51;;;;;;;6.30;2.65;;;23.30;87.20;;;;;;5036400;28;20671;-84
2023/04/22 12:08:20;;;;;;;4.68;2.45;;;23.40;86.70;;;;;;5036354;28;20652;-83
2023/04/22 12:10:53;;;;;;;5.07;2.35;;;23.30;86.00;;;;;;5036175;28;20182;-83
2023/04/22 12:13:23;;;;;;;5.25;2.72;;;23.20;86.90;;;;;;5036138;28;20231;-83
2023/04/22 12:16:00;;;;;;;4.65;2.08;;;23.20;85.40;;;;;;5035814;28;20310;-84
2023/04/22 12:18:33;;;;;;;2.47;2.17;;;23.30;86.00;;;;;;5023081;28;20177;-83
2023/04/22 12:21:00;;;;;;;4.75;2.30;;;23.30;84.70;;;;;;5054789;28;20181;-83
2023/04/22 12:23:27;;;;;;;5.75;2.50;;;23.40;87.30;;;;;;5055685;28;20202;-83
2023/04/22 12:25:52;;;;;;;4.85;2.60;;;23.40;86.90;;;;;;5055961;28;20157;-82
2023/04/22 12:28:18;;;;;;;3.28;2.15;;;23.50;86.30;;;;;;5048159;28;20655;-82
2023/04/22 12:30:44;;;;;;;3.50;2.17;;;23.50;84.80;;;;;;5025870;28;20261;-82
2023/04/22 12:33:10;;;;;;;4.35;2.45;;;23.50;86.40;;;;;;5046170;28;20178;-82
2023/04/22 12:35:36;;;;;;;3.28;2.17;;;23.60;85.60;;;;;;5052435;28;20186;-82
2023/04/22 12:38:02;;;;;;;5.47;2.45;;;23.60;82.80;;;;;;5040300;28;20232;-84
2023/04/22 12:40:28;;;;;;;6.55;2.38;;;23.60;83.20;;;;;;5017750;28;20186;-82
2023/04/22 12:42:53;;;;;;;6.20;2.28;;;23.50;82.80;;;;;;5035653;28;20198;-82
2023/04/22 12:45:21;;;;;;;6.32;2.35;;;23.40;83.10;;;;;;5035404;28;20174;-83